Time;durP1;ratioP1;P1;durP2;ratioP2;P2;SDS_P1;SDS_P2;PMS_P1;PMS_P2;Temp;Humidity;BMP_temperature;BMP_pressure;BME280_temperature;BME280_humidity;BME280_pressure;Samples;Min_cycle;Max_cycle;Signal;HPM_P1;HPM_P2
2022/10/04 00:02:43;;;;;;;0.98;0.73;;;;;;;-145.06;24.23;60892.56;4882206;28;19920;-92
2022/10/04 00:05:24;;;;;;;1.63;0.65;;;;;;;-145.06;24.23;60892.56;4894843;28;20032;-91
2022/10/04 00:08:26;;;;;;;0.88;0.63;;;;;;;-145.06;24.23;60892.56;4884237;28;20021;-91
2022/10/04 00:11:25;;;;;;;0.80;0.45;;;;;;;11.82;24.23;60892.56;4883327;28;20029;-91
2022/10/04 00:14:13;;;;;;;1.70;0.70;;;;;;;-145.06;24.23;60892.56;4864706;28;20068;-92
2022/10/04 00:16:53;;;;;;;1.15;0.60;;;;;;;-145.06;24.23;60892.56;4862676;28;20044;-92
2022/10/04 00:19:48;;;;;;;1.13;0.63;;;;;;;-145.06;24.23;60892.56;4860945;28;20037;-92
2022/10/04 00:22:29;;;;;;;1.10;0.70;;;;;;;11.82;24.23;60892.56;4861805;28;20037;-91
2022/10/04 00:25:16;;;;;;;0.82;0.47;;;;;;;11.71;24.23;60892.56;4860718;28;20037;-91
2022/10/04 00:28:36;;;;;;;1.65;0.60;;;;;;;-145.06;24.23;60892.56;4870917;28;20415;-91
2022/10/04 00:31:19;;;;;;;1.05;0.45;;;;;;;-145.06;24.23;60892.56;4852380;28;20036;-92
2022/10/04 00:34:07;;;;;;;1.35;0.60;;;;;;;-145.06;24.23;60892.56;4855201;28;20190;-92
2022/10/04 00:36:51;;;;;;;0.73;0.50;;;;;;;11.67;24.23;60892.56;4871929;28;20681;-91
2022/10/04 00:39:32;;;;;;;0.93;0.70;;;;;;;-145.06;24.23;60892.56;4874549;28;20041;-92
2022/10/04 00:42:43;;;;;;;1.40;0.65;;;;;;;-145.06;24.23;60892.56;4862918;28;20049;-91
2022/10/04 00:45:47;;;;;;;0.73;0.50;;;;;;;-145.06;24.23;60892.56;4878669;28;20524;-91
2022/10/04 00:48:51;;;;;;;0.68;0.60;;;;;;;-145.06;24.23;60892.56;4876302;28;20125;-92
2022/10/04 00:51:38;;;;;;;0.70;0.50;;;;;;;-145.06;24.23;60892.56;4874614;28;20527;-90
2022/10/04 00:54:32;;;;;;;0.93;0.57;;;;;;;-145.06;24.23;60892.56;4863116;28;20025;-90
2022/10/04 00:57:16;;;;;;;0.88;0.57;;;;;;;-145.06;24.23;60892.56;4866406;28;20032;-92
2022/10/04 01:00:02;;;;;;;0.50;0.40;;;;;;;11.58;24.23;60892.56;4864042;28;20464;-92
2022/10/04 01:02:44;;;;;;;0.80;0.50;;;;;;;-145.06;24.23;60892.56;4860735;28;20116;-91
2022/10/04 01:05:40;;;;;;;0.80;0.60;;;;;;;-145.06;24.23;60892.56;4864347;28;20534;-91
2022/10/04 01:08:47;;;;;;;0.40;0.40;;;;;;;-145.06;24.23;60892.56;4866999;28;20033;-92
2022/10/04 01:11:30;;;;;;;0.85;0.60;;;;;;;-145.06;24.23;60892.56;4860007;28;20371;-92
2022/10/04 01:14:35;;;;;;;0.52;0.47;;;;;;;-145.06;24.23;60892.56;4862520;28;20494;-91
2022/10/04 01:17:14;;;;;;;0.60;0.40;;;;;;;-145.06;24.23;60892.56;4876324;28;20400;-91
2022/10/04 01:19:54;;;;;;;0.70;0.50;;;;;;;11.66;24.23;60892.56;4873563;28;20486;-92
2022/10/04 01:22:34;;;;;;;0.93;0.52;;;;;;;21.08;24.23;60892.56;4862294;28;20387;-91
2022/10/04 01:25:43;;;;;;;0.77;0.50;;;;;;;-145.06;24.23;60892.56;4874368;28;20040;-90
2022/10/04 01:28:22;;;;;;;1.08;0.60;;;;;;;-145.06;24.23;60892.56;4866572;28;20025;-92
2022/10/04 01:31:01;;;;;;;2.00;0.70;;;;;;;187.52;24.23;60892.56;4860247;28;20041;-92
2022/10/04 01:33:40;;;;;;;0.40;0.40;;;;;;;-145.06;24.23;60892.56;4877936;28;20029;-91
2022/10/04 01:36:19;;;;;;;0.50;0.37;;;;;;;-145.06;24.23;60892.56;4867883;28;20025;-91
2022/10/04 01:38:59;;;;;;;1.07;0.63;;;;;;;-145.06;24.23;60892.56;4861920;28;20033;-91
2022/10/04 01:41:43;;;;;;;2.58;0.60;;;;;;;-145.06;24.23;60892.56;4867290;28;20041;-91
2022/10/04 01:44:28;;;;;;;0.50;0.50;;;;;;;-145.06;24.23;60892.56;4859311;28;20092;-92
2022/10/04 01:47:13;;;;;;;0.90;0.70;;;;;;;13.28;24.23;60892.56;4871820;28;20033;-91
2022/10/04 01:49:54;;;;;;;0.60;0.40;;;;;;;-145.06;24.23;60892.56;4873621;28;20049;-91
2022/10/04 01:52:40;;;;;;;0.70;0.52;;;;;;;-145.06;24.23;60892.56;4872787;28;20376;-90
2022/10/04 01:55:25;;;;;;;0.90;0.60;;;;;;;-145.06;24.23;60892.56;4867289;28;20029;-92
2022/10/04 01:58:48;;;;;;;0.65;0.50;;;;;;;-145.06;24.23;60892.56;4864044;28;20471;-92
2022/10/04 02:02:05;;;;;;;1.52;0.63;;;;;;;-145.06;24.23;60892.56;4863033;28;20148;-91
2022/10/04 02:04:51;;;;;;;0.73;0.50;;;;;;;-145.06;24.23;60892.56;4867247;28;20097;-92
2022/10/04 02:07:32;;;;;;;1.20;0.73;;;;;;;-145.06;24.23;60892.56;4864270;28;20025;-91
2022/10/04 02:10:18;;;;;;;0.95;0.70;;;;;;;-145.06;24.23;60892.56;4865024;28;20033;-92
2022/10/04 02:12:59;;;;;;;0.55;0.50;;;;;;;-145.06;24.23;60892.56;4863715;28;20032;-92
2022/10/04 02:15:39;;;;;;;1.35;0.63;;;;;;;-145.06;24.23;60892.56;4865104;28;20033;-91
2022/10/04 02:18:21;;;;;;;0.60;0.50;;;;;;;-145.06;24.23;60892.56;4861779;28;20029;-90
2022/10/04 02:21:03;;;;;;;0.88;0.60;;;;;;;-145.06;24.23;60892.56;4865915;28;20033;-91
2022/10/04 02:23:44;;;;;;;0.52;0.47;;;;;;;-145.06;24.23;60892.56;4864186;28;20371;-91
2022/10/04 02:26:23;;;;;;;1.52;0.60;;;;;;;-145.06;24.23;60892.56;4861962;28;20037;-91
2022/10/04 02:29:02;;;;;;;1.00;0.70;;;;;;;-145.06;24.23;60892.56;4863192;28;20037;-90
2022/10/04 02:34:40;;;;;;;1.17;0.57;;;;;;;-145.06;24.23;60892.56;4867756;28;20028;-91
2022/10/04 02:37:22;;;;;;;1.52;0.70;;;;;;;-145.06;24.23;60892.56;4864283;28;20036;-93
2022/10/04 02:40:14;;;;;;;1.33;0.70;;;;;;;-145.06;24.23;60892.56;4873702;28;20181;-91
2022/10/04 02:43:01;;;;;;;0.77;0.70;;;;;;;-145.06;24.23;60892.56;4864088;28;20349;-92
2022/10/04 02:45:40;;;;;;;0.80;0.55;;;;;;;-145.06;24.23;60892.56;4874315;28;20384;-90
2022/10/04 02:48:38;;;;;;;0.70;0.60;;;;;;;-145.06;24.23;60892.56;4866794;28;20704;-91
2022/10/04 02:51:27;;;;;;;1.25;0.57;;;;;;;-145.06;24.23;60892.56;4880081;28;20041;-91
2022/10/04 02:54:21;;;;;;;0.83;0.70;;;;;;;-145.06;24.23;60892.56;4862804;28;20033;-93
2022/10/04 02:57:01;;;;;;;1.23;0.50;;;;;;;-145.06;24.23;60892.56;4861231;28;20404;-91
2022/10/04 02:59:39;;;;;;;0.90;0.70;;;;;;;-145.06;24.23;60892.56;4864997;28;20119;-92
2022/10/04 03:02:23;;;;;;;1.15;0.63;;;;;;;-145.06;24.23;60892.56;4863321;28;20041;-91
2022/10/04 03:05:06;;;;;;;1.23;0.60;;;;;;;-145.06;24.23;60892.56;4861796;28;20097;-92
2022/10/04 03:07:46;;;;;;;0.70;0.50;;;;;;;-145.06;24.23;60892.56;4866620;28;20120;-91
2022/10/04 03:10:25;;;;;;;0.65;0.50;;;;;;;-145.06;24.23;60892.56;4878325;28;20416;-92
2022/10/04 03:13:05;;;;;;;1.23;0.52;;;;;;;-145.06;24.23;60892.56;4878340;28;20037;-91
2022/10/04 03:15:45;;;;;;;0.60;0.52;;;;;;;-145.06;24.23;60892.56;4869160;28;20104;-91
2022/10/04 03:18:25;;;;;;;0.65;0.55;;;;;;;-145.06;24.23;60892.56;4869830;28;20032;-91
2022/10/04 03:21:07;;;;;;;0.80;0.70;;;;;;;-145.06;24.23;60892.56;4888029;28;20017;-90
2022/10/04 03:23:49;;;;;;;1.05;0.60;;;;;;;-145.06;24.23;60892.56;4869453;28;20542;-91
2022/10/04 03:26:37;;;;;;;0.65;0.60;;;;;;;-145.06;24.23;60892.56;4871093;28;20025;-91
2022/10/04 03:29:17;;;;;;;0.70;0.70;;;;;;;-145.06;24.23;60892.56;4871266;28;20060;-91
2022/10/04 03:32:00;;;;;;;0.85;0.60;;;;;;;-145.06;24.23;60892.56;4866914;28;20371;-91
2022/10/04 03:34:45;;;;;;;0.60;0.40;;;;;;;-145.06;24.23;60892.56;4864710;28;20052;-90
2022/10/04 03:37:27;;;;;;;0.90;0.60;;;;;;;-145.06;24.23;60892.56;4866720;28;20037;-91
2022/10/04 03:40:08;;;;;;;1.00;0.65;;;;;;;-145.06;24.23;60892.56;4858314;28;20064;-91
2022/10/04 03:42:49;;;;;;;0.88;0.50;;;;;;;-145.06;24.23;60892.56;4862680;28;20071;-91
2022/10/04 03:45:30;;;;;;;1.13;0.50;;;;;;;-145.06;24.23;60892.56;4872053;28;20033;-91
2022/10/04 03:48:13;;;;;;;0.68;0.43;;;;;;;-145.06;24.23;60892.56;4877638;28;20029;-92
2022/10/04 03:50:53;;;;;;;0.60;0.50;;;;;;;-145.06;24.23;60892.56;4866690;28;20032;-90
2022/10/04 03:53:41;;;;;;;1.23;0.82;;;;;;;-145.06;24.23;60892.56;4875293;28;20060;-92
2022/10/04 03:56:26;;;;;;;0.45;0.45;;;;;;;-145.06;24.23;60892.56;4866126;28;20455;-91
2022/10/04 03:59:06;;;;;;;1.20;0.80;;;;;;;10.35;24.23;60892.56;4860653;28;20037;-91
2022/10/04 04:02:03;;;;;;;0.90;0.80;;;;;;;-145.06;24.23;60892.56;4864098;28;20068;-90
2022/10/04 04:05:03;;;;;;;1.80;0.80;;;;;;;-145.06;24.23;60892.56;4864743;28;20128;-91
2022/10/04 04:07:44;;;;;;;1.80;0.98;;;;;;;-145.06;24.23;60892.56;4864873;28;20488;-92
2022/10/04 04:10:28;;;;;;;1.27;1.10;;;;;;;-145.06;24.23;60892.56;4865757;28;20045;-89
2022/10/04 04:13:10;;;;;;;1.77;1.17;;;;;;;-145.06;24.23;60892.56;4870760;28;20044;-91
2022/10/04 04:15:50;;;;;;;3.10;1.55;;;;;;;-145.06;24.23;60892.56;4873690;28;20041;-91
2022/10/04 04:18:33;;;;;;;;;;;;;;;-145.06;24.23;60892.56;4863296;28;20041;-90
2022/10/04 04:21:17;;;;;;;1.10;0.90;;;;;;;-145.06;24.23;60892.56;4867054;28;20011;-89
2022/10/04 04:24:23;;;;;;;1.55;1.13;;;;;;;-145.06;24.23;60892.56;4860471;28;20036;-92
2022/10/04 04:27:04;;;;;;;1.45;0.95;;;;;;;-145.06;24.23;60892.56;4864497;28;20041;-91
2022/10/04 04:29:49;;;;;;;1.30;0.90;;;;;;;-145.06;24.23;60892.56;4868550;28;20033;-91
2022/10/04 04:32:35;;;;;;;1.08;0.60;;;;;;;-145.06;24.23;60892.56;4861599;28;20081;-91
2022/10/04 04:35:31;;;;;;;0.90;0.70;;;;;;;-145.06;24.23;60892.56;4863930;28;20471;-90
2022/10/04 04:38:18;;;;;;;0.88;0.70;;;;;;;-145.06;24.23;60892.56;4864234;28;20037;-91
2022/10/04 04:41:08;;;;;;;0.75;0.60;;;;;;;-145.06;24.23;60892.56;4882335;28;20269;-91
2022/10/04 04:43:48;;;;;;;1.13;0.70;;;;;;;-145.06;24.23;60892.56;4862901;28;20424;-90
2022/10/04 04:46:27;;;;;;;;;;;;;;;-145.06;24.23;60892.56;4864129;28;20488;-91
2022/10/04 04:49:10;;;;;;;0.70;0.50;;;;;;;-145.06;24.23;60892.56;4862245;28;19916;-91
2022/10/04 04:51:51;;;;;;;0.63;0.60;;;;;;;-145.06;24.23;60892.56;4861756;28;20045;-92
2022/10/04 04:54:31;;;;;;;0.73;0.50;;;;;;;-145.06;24.23;60892.56;4863489;28;20029;-92
2022/10/04 04:57:15;;;;;;;0.50;0.50;;;;;;;-145.06;24.23;60892.56;4865152;28;20549;-91
2022/10/04 04:59:59;;;;;;;0.40;0.40;;;;;;;-145.06;24.23;60892.56;4864784;28;20369;-93
2022/10/04 05:02:50;;;;;;;0.90;0.70;;;;;;;-145.06;24.23;60892.56;4863567;28;20526;-92
2022/10/04 05:05:31;;;;;;;1.42;0.70;;;;;;;-145.06;24.23;60892.56;4859517;28;20068;-90
2022/10/04 05:08:19;;;;;;;2.47;0.60;;;;;;;-145.06;24.23;60892.56;4864520;28;20548;-92
2022/10/04 05:11:02;;;;;;;1.23;0.70;;;;;;;-145.06;24.23;60892.56;4874456;28;20029;-91
2022/10/04 05:13:44;;;;;;;0.82;0.60;;;;;;;-145.06;24.23;60892.56;4868481;28;20041;-91
2022/10/04 05:16:31;;;;;;;0.98;0.57;;;;;;;-145.06;24.23;60892.56;4868617;28;20490;-91
2022/10/04 05:19:34;;;;;;;0.77;0.60;;;;;;;-145.06;24.23;60892.56;4874284;28;20048;-91
2022/10/04 05:22:16;;;;;;;0.80;0.60;;;;;;;-145.06;24.23;60892.56;4893172;28;20506;-91
2022/10/04 05:25:01;;;;;;;1.77;0.50;;;;;;;-145.06;24.23;60892.56;4868109;28;20376;-92
2022/10/04 05:27:43;;;;;;;0.90;0.70;;;;;;;-145.06;24.23;60892.56;4859262;28;20021;-91
2022/10/04 05:30:48;;;;;;;1.20;0.70;;;;;;;-145.06;24.23;60892.56;4857389;28;20037;-92
2022/10/04 05:33:57;;;;;;;1.25;0.70;;;;;;;-145.06;24.23;60892.56;4861096;28;20033;-91
2022/10/04 05:37:21;;;;;;;2.78;0.77;;;;;;;-145.06;24.23;60892.56;4862567;28;20046;-91
2022/10/04 05:40:09;;;;;;;1.05;0.60;;;;;;;-145.06;24.23;60892.56;4860851;28;20028;-91
2022/10/04 05:42:50;;;;;;;1.63;0.70;;;;;;;-145.06;24.23;60892.56;4858024;28;20033;-90
2022/10/04 05:45:30;;;;;;;0.90;0.70;;;;;;;-145.06;24.23;60892.56;4872175;28;20391;-90
2022/10/04 05:48:12;;;;;;;0.60;0.47;;;;;;;-145.06;24.23;60892.56;4874092;28;20033;-92
2022/10/04 05:50:52;;;;;;;1.20;0.60;;;;;;;-145.06;24.23;60892.56;4863605;28;20288;-92
2022/10/04 05:53:34;;;;;;;0.70;0.43;;;;;;;-145.06;24.23;60892.56;4869590;28;20040;-92
2022/10/04 05:56:46;;;;;;;1.13;0.70;;;;;;;-145.06;24.23;60892.56;4859779;28;20045;-91
2022/10/04 05:59:42;;;;;;;0.98;0.80;;;;;;;-145.06;24.23;60892.56;4866228;28;20041;-91
2022/10/04 06:02:44;;;;;;;2.05;0.70;;;;;;;-145.06;24.23;60892.56;4877224;28;20021;-92
2022/10/04 06:05:24;;;;;;;1.73;1.02;;;;;;;-145.06;24.23;60892.56;4871083;28;20044;-91
2022/10/04 06:08:18;;;;;;;0.67;0.67;;;;;;;-145.06;24.23;60892.56;4882620;28;20028;-93
2022/10/04 06:11:09;;;;;;;1.25;0.80;;;;;;;-145.06;24.23;60892.56;4872899;28;20029;-92
2022/10/04 06:14:08;;;;;;;1.70;0.90;;;;;;;-145.06;24.23;60892.56;4899353;28;20032;-93
2022/10/04 06:17:06;;;;;;;0.90;0.57;;;;;;;-145.06;24.23;60892.56;4872044;28;20040;-93
2022/10/04 06:20:00;;;;;;;0.77;0.57;;;;;;;-145.06;24.23;60892.56;4883250;28;20021;-92
2022/10/04 06:22:45;;;;;;;1.40;0.73;;;;;;;-145.06;24.23;60892.56;4875021;28;20033;-92
2022/10/04 06:25:46;;;;;;;1.10;0.90;;;;;;;-145.06;24.23;60892.56;4875007;28;20029;-92
2022/10/04 06:28:34;;;;;;;1.55;0.82;;;;;;;-145.06;24.23;60892.56;4889474;28;20017;-92
2022/10/04 06:31:38;;;;;;;1.38;0.88;;;;;;;-145.06;24.23;60892.56;4873462;28;20029;-92
2022/10/04 06:34:35;;;;;;;1.05;0.75;;;;;;;-145.06;24.23;60892.56;4888679;28;20088;-92
2022/10/04 06:37:26;;;;;;;1.27;0.93;;;;;;;-145.06;24.23;60892.56;4897976;28;20061;-92
2022/10/04 06:40:05;;;;;;;2.03;1.35;;;;;;;-145.06;24.23;60892.56;4865895;28;20195;-91
2022/10/04 06:42:53;;;;;;;1.37;1.10;;;;;;;-145.06;24.23;60892.56;4874550;28;20333;-94
2022/10/04 06:45:51;;;;;;;1.35;0.95;;;;;;;-145.06;24.23;60892.56;4872365;28;20025;-91
2022/10/04 06:48:42;;;;;;;1.00;0.75;;;;;;;-145.06;24.23;60892.56;4891101;28;20025;-93
2022/10/04 06:51:48;;;;;;;1.10;0.80;;;;;;;-145.06;24.23;60892.56;4879188;28;20033;-91
2022/10/04 06:54:37;;;;;;;1.15;1.00;;;;;;;-145.06;24.23;60892.56;4890239;28;20025;-92
2022/10/04 06:57:34;;;;;;;1.27;1.00;;;;;;;-145.06;24.23;60892.56;4874977;28;20084;-92
2022/10/04 07:00:24;;;;;;;1.38;1.00;;;;;;;-145.06;24.23;60892.56;4874210;28;20306;-92
2022/10/04 07:03:08;;;;;;;;;;;;;;;-145.06;24.23;60892.56;4871855;28;20025;-91
2022/10/04 07:05:52;;;;;;;1.00;0.75;;;;;;;-145.06;24.23;60892.56;4888087;28;20247;-92
2022/10/04 07:08:46;;;;;;;2.85;0.90;;;;;;;-145.06;24.23;60892.56;4875320;28;20478;-92
2022/10/04 07:11:41;;;;;;;1.27;0.70;;;;;;;-145.06;24.23;60892.56;4876241;28;20017;-92
2022/10/04 07:14:30;;;;;;;1.10;0.80;;;;;;;-145.06;24.23;60892.56;4894944;28;20029;-92
2022/10/04 07:17:21;;;;;;;1.08;0.93;;;;;;;-145.06;24.23;60892.56;4862586;28;20033;-94
2022/10/04 07:20:01;;;;;;;1.30;1.00;;;;;;;-145.06;24.23;60892.56;4866411;28;20030;-93
2022/10/04 07:22:43;;;;;;;;;;;;;;;-145.06;24.23;60892.56;4890263;28;20025;-90
2022/10/04 07:25:34;;;;;;;0.77;0.57;;;;;;;-145.06;24.23;60892.56;4864498;28;20635;-92
2022/10/04 07:31:37;;;;;;;0.77;0.70;;;;;;;-145.06;24.23;60892.56;4877840;28;20033;-90
2022/10/04 07:34:25;;;;;;;1.40;1.00;;;;;;;-145.06;24.23;60892.56;4873172;28;20340;-91
2022/10/04 07:37:11;;;;;;;1.40;0.90;;;;;;;-145.06;24.23;60892.56;4865596;28;20026;-91
2022/10/04 07:40:25;;;;;;;1.23;1.00;;;;;;;-145.06;24.23;60892.56;4884776;28;20120;-92
2022/10/04 07:43:13;;;;;;;2.13;1.20;;;;;;;-145.06;24.23;60892.56;4869604;28;20037;-91
2022/10/04 07:46:20;;;;;;;2.08;1.33;;;;;;;-145.06;24.23;60892.56;4877315;28;20037;-91
2022/10/04 07:49:00;;;;;;;1.33;0.85;;;;;;;-145.06;24.23;60892.56;4877199;28;20404;-90
2022/10/04 07:52:04;;;;;;;1.65;1.08;;;;;;;-145.06;24.23;60892.56;4871229;28;20036;-91
2022/10/04 07:54:55;;;;;;;1.10;0.98;;;;;;;11.98;24.23;60892.56;4867273;28;20037;-90
2022/10/04 07:58:09;;;;;;;1.65;0.95;;;;;;;-145.06;24.23;60892.56;4872047;28;20989;-91
2022/10/04 08:01:00;;;;;;;1.35;0.93;;;;;;;13.28;24.23;60892.56;4872274;28;20360;-91
2022/10/04 08:04:29;;;;;;;1.42;0.88;;;;;;;-145.06;24.23;60892.56;4868023;28;20037;-93
2022/10/04 08:07:20;;;;;;;1.17;0.90;;;;;;;-145.06;24.23;60892.56;4870105;28;20116;-91
2022/10/04 08:10:33;;;;;;;1.52;1.10;;;;;;;-145.06;24.23;60892.56;4869035;28;20033;-91
2022/10/04 08:13:21;;;;;;;2.17;1.10;;;;;;;-145.06;24.23;60892.56;4862458;28;20044;-91
2022/10/04 08:16:11;;;;;;;1.50;1.10;;;;;;;-145.06;24.23;60892.56;4880718;28;20371;-90
2022/10/04 08:19:23;;;;;;;1.60;1.20;;;;;;;-145.06;24.23;60892.56;4874151;28;20029;-91
2022/10/04 08:22:19;;;;;;;0.90;0.80;;;;;;;-145.06;24.23;60892.56;4886010;28;20029;-90
2022/10/04 08:25:23;;;;;;;1.08;0.90;;;;;;;-145.06;24.23;60892.56;4877450;28;20663;-91
2022/10/04 08:32:07;;;;;;;1.33;1.00;;;;;;;-145.06;24.23;60892.56;4877602;28;20471;-91
2022/10/04 08:35:18;;;;;;;2.08;1.38;;;;;;;15.88;24.23;60892.56;4873674;28;20036;-90
2022/10/04 08:38:09;;;;;;;1.70;1.20;;;;;;;-145.06;24.23;60892.56;4864389;28;20088;-90
2022/10/04 08:41:07;;;;;;;1.38;1.17;;;;;;;-145.06;24.23;60892.56;4864692;28;20113;-90
2022/10/04 08:44:01;;;;;;;1.63;1.10;;;;;;;-145.06;24.23;60892.56;4862511;28;20124;-90
2022/10/04 08:47:09;;;;;;;1.42;1.30;;;;;;;-145.06;24.23;60892.56;4867235;28;20025;-90
2022/10/04 08:49:57;;;;;;;1.67;0.98;;;;;;;-145.06;24.23;60892.56;4867193;28;20377;-90
2022/10/04 08:52:56;;;;;;;1.90;1.10;;;;;;;-145.06;24.23;60892.56;4881262;28;20056;-90
2022/10/04 08:56:09;;;;;;;1.10;1.00;;;;;;;-145.06;24.23;60892.56;4884033;28;20108;-89
2022/10/04 08:59:34;;;;;;;1.38;0.90;;;;;;;-145.06;24.23;60892.56;4860329;28;20491;-91
2022/10/04 09:02:16;;;;;;;1.92;1.05;;;;;;;12.98;24.23;60892.56;4860545;28;20030;-90
2022/10/04 09:05:34;;;;;;;1.77;1.23;;;;;;;13.09;24.23;60892.56;4869844;28;20041;-90
2022/10/04 09:08:51;;;;;;;1.23;0.95;;;;;;;13.20;24.23;60892.56;4867346;28;20029;-90
2022/10/04 09:11:30;;;;;;;1.33;0.85;;;;;;;-145.06;24.23;60892.56;4869846;28;20072;-90
2022/10/04 09:14:22;;;;;;;1.33;1.00;;;;;;;-145.06;24.23;60892.56;4861533;28;20033;-91
2022/10/04 09:17:01;;;;;;;0.90;0.80;;;;;;;-145.06;24.23;60892.56;4874567;28;20283;-90
2022/10/04 09:20:02;;;;;;;1.10;0.95;;;;;;;-145.06;24.23;60892.56;4883407;28;20491;-91
2022/10/04 09:22:46;;;;;;;1.20;0.90;;;;;;;-145.06;24.23;60892.56;4865342;28;20032;-90
2022/10/04 09:25:43;;;;;;;1.42;0.90;;;;;;;-145.06;24.23;60892.56;4863575;28;20033;-91
2022/10/04 09:28:23;;;;;;;1.13;1.00;;;;;;;-145.06;24.23;60892.56;4880330;28;20029;-90
2022/10/04 09:31:47;;;;;;;1.77;0.90;;;;;;;-145.06;24.23;60892.56;4869154;28;20033;-92
2022/10/04 09:34:48;;;;;;;0.95;0.85;;;;;;;-145.06;24.23;60892.56;4864563;28;20662;-90
2022/10/04 09:38:05;;;;;;;1.35;0.90;;;;;;;14.36;24.23;60892.56;4878112;28;20025;-91
2022/10/04 09:41:02;;;;;;;1.23;0.77;;;;;;;14.50;24.23;60892.56;4870639;28;20056;-90
2022/10/04 09:44:00;;;;;;;1.58;0.90;;;;;;;-145.06;24.23;60892.56;4873455;28;20029;-90
2022/10/04 09:46:50;;;;;;;0.70;0.70;;;;;;;-145.06;24.23;60892.56;4860951;28;20037;-90
2022/10/04 09:50:08;;;;;;;1.38;1.00;;;;;;;-145.06;24.23;60892.56;4892133;28;20372;-90
2022/10/04 09:53:06;;;;;;;1.73;1.10;;;;;;;-145.06;24.23;60892.56;4860138;28;20478;-91
2022/10/04 09:56:03;;;;;;;1.60;0.90;;;;;;;-145.06;24.23;60892.56;4859585;28;20040;-91
2022/10/04 09:59:07;;;;;;;1.05;0.90;;;;;;;-145.06;24.23;60892.56;4874337;28;20068;-92
2022/10/04 10:01:59;;;;;;;1.08;0.90;;;;;;;15.64;24.23;60892.56;4869860;28;20032;-91
2022/10/04 10:04:41;;;;;;;2.45;1.00;;;;;;;15.76;24.23;60892.56;4864813;28;20033;-91
2022/10/04 10:07:23;;;;;;;1.23;0.73;;;;;;;15.88;24.23;60892.56;4862549;28;20029;-91
2022/10/04 10:13:42;;;;;;;0.90;0.70;;;;;;;-145.06;24.23;60892.56;4866073;28;20325;-92
2022/10/04 10:16:33;;;;;;;1.98;1.00;;;;;;;-145.06;24.23;60892.56;4880370;28;20544;-90
2022/10/04 10:19:41;;;;;;;1.42;0.98;;;;;;;-145.06;24.23;60892.56;4864542;28;20382;-91
2022/10/04 10:22:59;;;;;;;1.38;0.90;;;;;;;-145.06;24.23;60892.56;4876401;28;20037;-92
2022/10/04 10:25:58;;;;;;;1.63;0.85;;;;;;;16.91;24.23;60892.56;4868180;28;20032;-92
2022/10/04 10:29:05;;;;;;;1.15;0.82;;;;;;;17.09;24.23;60892.56;4864256;28;20037;-93
2022/10/04 10:32:14;;;;;;;1.42;0.88;;;;;;;-145.06;24.23;60892.56;4862143;28;20424;-92
2022/10/04 10:35:14;;;;;;;1.73;0.70;;;;;;;-145.06;24.23;60892.56;4887596;28;20037;-91
2022/10/04 10:38:18;;;;;;;1.30;0.70;;;;;;;-145.06;24.23;60892.56;4865347;28;20059;-90
2022/10/04 10:41:49;;;;;;;1.08;0.95;;;;;;;-145.06;24.23;60892.56;4876541;28;20056;-93
2022/10/04 10:45:13;;;;;;;1.00;0.77;;;;;;;-145.06;24.23;60892.56;4867644;28;20376;-91
2022/10/04 10:48:12;;;;;;;1.08;0.70;;;;;;;-145.06;24.23;60892.56;4868618;28;20033;-93
2022/10/04 10:51:42;;;;;;;1.52;1.02;;;;;;;18.41;24.23;60892.56;4868329;28;20486;-92
2022/10/04 13:24:07;;;;;;;0.60;0.50;;;;;;;-145.06;24.23;60892.56;5208600;23;20085;-93
2022/10/04 13:27:10;;;;;;;1.17;0.50;;;;;;;-145.06;24.23;60892.56;4807546;28;20062;-91
2022/10/04 13:30:07;;;;;;;0.82;0.52;;;;;;;-145.06;24.23;60892.56;4796234;28;20034;-93
2022/10/04 13:33:07;;;;;;;0.43;0.43;;;;;;;-145.06;24.23;60892.56;4810264;28;20026;-94
2022/10/04 13:44:01;;;;;;;0.63;0.40;;;;;;;-145.06;24.23;60892.56;4826043;28;20094;-94
2022/10/04 13:50:36;;;;;;;0.50;0.38;;;;;;;-145.06;24.23;60892.56;4773023;29;20039;-93
2022/10/04 13:56:48;;;;;;;1.38;0.40;;;;;;;-145.06;24.23;60892.56;4824704;28;20057;-93
2022/10/04 13:59:44;;;;;;;0.70;0.40;;;;;;;-145.06;24.23;60892.56;4809533;28;20018;-93
2022/10/04 14:02:29;;;;;;;0.50;0.40;;;;;;;-145.06;24.23;60892.56;4809903;28;20386;-93
2022/10/04 14:05:40;;;;;;;0.35;0.30;;;;;;;-145.06;24.23;60892.56;4809293;28;20113;-93
2022/10/04 14:08:43;;;;;;;0.40;0.40;;;;;;;-145.06;24.23;60892.56;4809424;28;20366;-94
2022/10/04 14:11:50;;;;;;;0.43;0.30;;;;;;;-145.06;24.23;60892.56;4809812;28;20026;-92
2022/10/04 14:14:54;;;;;;;0.38;0.30;;;;;;;-145.06;24.23;60892.56;4809410;28;20058;-95
2022/10/04 14:18:14;;;;;;;0.98;0.45;;;;;;;-145.06;24.23;60892.56;4809975;28;20019;-94
2022/10/04 14:21:32;;;;;;;1.45;0.50;;;;;;;-145.06;24.23;60892.56;4809853;28;20062;-94
2022/10/04 14:25:05;;;;;;;0.40;0.30;;;;;;;-145.06;24.23;60892.56;4808864;28;20042;-94
2022/10/04 14:28:07;;;;;;;1.35;0.50;;;;;;;-145.06;24.23;60892.56;4830446;28;20070;-94
2022/10/04 14:31:10;;;;;;;2.08;0.77;;;;;;;-145.06;24.23;60892.56;4809526;28;20030;-95
2022/10/04 14:34:13;;;;;;;0.70;0.40;;;;;;;-145.06;24.23;60892.56;4810171;28;20026;-94
2022/10/04 14:37:31;;;;;;;0.20;0.20;;;;;;;-145.06;24.23;60892.56;4809579;28;20034;-93
2022/10/04 14:40:29;;;;;;;0.50;0.30;;;;;;;-145.06;24.23;60892.56;4809709;28;20176;-93
2022/10/04 14:43:34;;;;;;;0.20;0.20;;;;;;;-145.06;24.23;60892.56;4809071;28;20045;-96
2022/10/04 14:46:32;;;;;;;0.50;0.32;;;;;;;-145.06;24.23;60892.56;4809272;28;20034;-96
2022/10/04 14:49:23;;;;;;;0.30;0.30;;;;;;;-145.06;24.23;60892.56;4809611;28;20030;-95
2022/10/04 14:52:49;;;;;;;0.30;0.30;;;;;;;-145.06;24.23;60892.56;4809173;28;20274;-95
2022/10/04 14:56:11;;;;;;;1.00;0.60;;;;;;;-145.06;24.23;60892.56;4823573;28;20034;-94
2022/10/04 14:59:29;;;;;;;0.68;0.38;;;;;;;-145.06;24.23;60892.56;4808883;28;20038;-94
2022/10/04 15:14:15;;;;;;;;;;;;;;;;;;;;;
2022/10/04 15:51:41;;;;;;;0.98;0.47;;;;;;;-145.06;24.23;60892.56;5792409;23;20017;-94
2022/10/04 15:54:54;;;;;;;0.33;0.30;;;;;;;-145.06;24.23;60892.56;4831242;28;20113;-94
2022/10/04 15:58:01;;;;;;;1.05;0.40;;;;;;;-145.06;24.23;60892.56;4825827;28;20270;-95
2022/10/04 16:00:48;;;;;;;0.77;0.40;;;;;;;-145.06;24.23;60892.56;4845156;28;20069;-94
2022/10/04 16:03:30;;;;;;;1.33;0.55;;;;;;;-145.06;24.23;60892.56;4835165;28;20041;-93
2022/10/04 16:06:29;;;;;;;1.75;0.50;;;;;;;-145.06;24.23;60892.56;4849122;28;20025;-93
2022/10/04 16:09:41;;;;;;;1.08;0.40;;;;;;;-145.06;24.23;60892.56;4848325;28;20037;-93
2022/10/04 16:12:34;;;;;;;0.57;0.32;;;;;;;-145.06;24.23;60892.56;4843745;28;20053;-93
2022/10/04 16:15:30;;;;;;;0.47;0.30;;;;;;;-145.06;24.23;60892.56;4834983;28;20029;-94
2022/10/04 16:18:31;;;;;;;1.48;0.30;;;;;;;-145.06;24.23;60892.56;4847350;28;20025;-93
2022/10/04 16:21:31;;;;;;;0.30;0.20;;;;;;;-145.06;24.23;60892.56;4842225;28;20365;-93
2022/10/04 16:24:50;;;;;;;1.98;0.50;;;;;;;-145.06;24.23;60892.56;4835484;28;20022;-94
2022/10/04 16:27:54;;;;;;;0.50;0.40;;;;;;;-145.06;24.23;60892.56;4862493;28;20372;-93
2022/10/04 16:31:16;;;;;;;0.90;0.50;;;;;;;-145.06;24.23;60892.56;4850221;28;20013;-95
2022/10/04 16:34:15;;;;;;;0.50;0.30;;;;;;;-145.06;24.23;60892.56;4842178;28;20030;-93
2022/10/04 16:37:13;;;;;;;1.38;0.50;;;;;;;-145.06;24.23;60892.56;4845659;28;20073;-94
2022/10/04 16:40:32;;;;;;;0.40;0.30;;;;;;;-145.06;24.23;60892.56;4848897;28;20033;-95
